createdAt,value
2018-12-01T00:01:39.348Z,20.20
2018-12-01T00:04:07.332Z,8.30
2018-12-01T00:06:35.292Z,15.67
2018-12-01T00:09:03.668Z,11.10
2018-12-01T00:11:31.742Z,13.00
2018-12-01T00:13:59.736Z,15.43
2018-12-01T00:16:27.756Z,10.70
2018-12-01T00:18:55.752Z,17.23
2018-12-01T00:21:23.754Z,11.90
2018-12-01T00:23:51.720Z,11.97
2018-12-01T00:26:19.702Z,13.47
2018-12-01T00:28:47.691Z,14.53
2018-12-01T00:31:15.793Z,14.53
2018-12-01T00:33:43.769Z,13.77
2018-12-01T00:36:11.870Z,13.27
2018-12-01T00:38:39.835Z,13.97
2018-12-01T00:41:07.818Z,12.70
2018-12-01T00:43:35.805Z,14.37
2018-12-01T00:46:03.858Z,16.73
2018-12-01T00:48:31.953Z,11.37
2018-12-01T00:50:59.912Z,10.50
2018-12-01T00:53:27.907Z,14.30
2018-12-01T00:55:55.879Z,13.73
2018-12-01T00:58:23.866Z,14.53
2018-12-01T01:00:51.861Z,11.27
2018-12-01T01:03:19.912Z,14.93
2018-12-01T01:05:47.888Z,18.73
2018-12-01T01:08:15.900Z,12.53
2018-12-01T01:10:43.952Z,15.33
2018-12-01T01:13:11.952Z,15.97
2018-12-01T01:15:39.998Z,15.17
2018-12-01T01:18:07.972Z,15.60
2018-12-01T01:20:36.048Z,11.33
2018-12-01T01:23:04.113Z,11.90
2018-12-01T01:25:32.081Z,16.77
2018-12-01T01:28:00.149Z,14.83
2018-12-01T01:30:28.152Z,11.33
2018-12-01T01:33:07.269Z,12.37
2018-12-01T01:35:35.273Z,16.70
2018-12-01T01:38:03.257Z,16.90
2018-12-01T01:40:31.280Z,16.00
2018-12-01T01:42:59.276Z,12.63
2018-12-01T01:45:27.276Z,16.43
2018-12-01T01:47:55.343Z,21.07
2018-12-01T01:50:23.371Z,14.90
2018-12-01T01:52:51.369Z,16.20
2018-12-01T01:55:19.341Z,14.73
2018-12-01T01:57:47.310Z,8.60
2018-12-01T02:00:20.115Z,12.93
2018-12-01T02:02:49.706Z,15.37
2018-12-01T02:05:18.827Z,10.13
2018-12-01T02:07:46.808Z,16.90
2018-12-01T02:10:15.941Z,17.40
2018-12-01T02:12:43.928Z,18.03
2018-12-01T02:15:12.515Z,15.60
2018-12-01T02:17:40.498Z,11.93
2018-12-01T02:20:12.866Z,11.53
2018-12-01T02:22:40.952Z,22.87
2018-12-01T02:25:13.896Z,15.43
2018-12-01T02:27:41.929Z,15.10
2018-12-01T02:30:14.062Z,14.03
2018-12-01T02:32:42.061Z,14.73
2018-12-01T02:35:14.184Z,12.60
2018-12-01T02:37:42.157Z,16.80
2018-12-01T02:40:11.149Z,16.80
2018-12-01T02:42:39.411Z,18.97
2018-12-01T02:45:18.601Z,16.17
2018-12-01T02:47:46.633Z,24.10
2018-12-01T02:50:15.326Z,20.20
2018-12-01T02:52:43.337Z,21.00
2018-12-01T02:55:11.352Z,19.07
2018-12-01T02:57:39.338Z,22.43
2018-12-01T03:00:10.909Z,17.73
2018-12-01T03:02:38.935Z,17.77
2018-12-01T03:05:09.393Z,19.40
2018-12-01T03:07:37.408Z,21.97
2018-12-01T03:10:09.195Z,12.27
2018-12-01T03:12:37.233Z,17.63
2018-12-01T03:15:07.004Z,18.10
2018-12-01T03:17:35.031Z,26.80
2018-12-01T03:20:03.216Z,18.17
2018-12-01T03:22:31.296Z,17.57
2018-12-01T03:24:59.267Z,21.03
2018-12-01T03:27:31.792Z,14.30
2018-12-01T03:29:59.784Z,19.27
2018-12-01T03:32:27.773Z,16.07
2018-12-01T03:34:55.808Z,24.23
2018-12-01T03:37:23.869Z,19.50
2018-12-01T03:39:51.850Z,17.97
2018-12-01T03:42:19.865Z,24.53
2018-12-01T03:44:47.834Z,16.10
2018-12-01T03:47:15.836Z,12.07
2018-12-01T03:49:43.904Z,18.43
2018-12-01T03:52:12.160Z,11.93
2018-12-01T03:54:40.183Z,13.83
2018-12-01T03:57:08.181Z,15.17
2018-12-01T03:59:36.215Z,15.47
2018-12-01T04:02:04.428Z,16.27
2018-12-01T04:04:32.397Z,18.13
2018-12-01T04:07:00.412Z,15.10
2018-12-01T04:09:28.369Z,13.83
2018-12-01T04:11:56.439Z,14.00
2018-12-01T04:14:24.472Z,12.27
2018-12-01T04:16:52.484Z,13.67
2018-12-01T04:19:20.447Z,11.33
2018-12-01T04:21:48.438Z,13.37
2018-12-01T04:24:16.436Z,12.97
2018-12-01T04:26:44.428Z,13.00
2018-12-01T04:29:12.505Z,12.73
2018-12-01T04:31:40.507Z,11.43
2018-12-01T04:34:08.576Z,15.63
2018-12-01T04:36:36.532Z,20.07
2018-12-01T04:39:07.022Z,15.23
2018-12-01T04:41:35.172Z,15.17
2018-12-01T04:44:03.172Z,14.37
2018-12-01T04:46:31.164Z,14.87
2018-12-01T04:48:59.165Z,13.53
2018-12-01T04:51:27.125Z,21.50
2018-12-01T04:53:55.137Z,18.47
2018-12-01T04:56:23.116Z,16.13
2018-12-01T04:58:51.095Z,14.83
2018-12-01T05:01:19.058Z,12.43
2018-12-01T05:03:47.032Z,15.30
2018-12-01T05:06:15.084Z,16.23
2018-12-01T05:08:43.070Z,18.07
2018-12-01T05:11:11.065Z,15.53
2018-12-01T05:13:39.032Z,19.73
2018-12-01T05:16:07.116Z,14.57
2018-12-01T05:18:35.108Z,18.15
2018-12-01T05:21:03.107Z,15.10
2018-12-01T05:23:31.087Z,19.00
2018-12-01T05:25:59.071Z,19.03
2018-12-01T05:28:27.061Z,20.90
2018-12-01T05:30:55.141Z,16.60
2018-12-01T05:33:23.216Z,16.70
2018-12-01T05:35:51.204Z,19.13
2018-12-01T05:38:19.539Z,15.40
2018-12-01T05:40:47.708Z,12.77
2018-12-01T05:43:16.048Z,14.80
2018-12-01T05:45:44.078Z,22.90
2018-12-01T05:48:12.061Z,18.17
2018-12-01T05:50:40.050Z,15.43
2018-12-01T05:53:08.048Z,16.83
2018-12-01T05:55:36.036Z,15.40
2018-12-01T05:58:04.060Z,14.93
2018-12-01T06:00:32.058Z,14.10
2018-12-01T06:03:00.048Z,8.50
2018-12-01T06:05:28.082Z,14.20
2018-12-01T06:07:56.097Z,13.10
2018-12-01T06:10:25.343Z,15.00
2018-12-01T06:12:53.036Z,10.87
2018-12-01T06:15:21.407Z,10.70
2018-12-01T06:17:49.571Z,12.07
2018-12-01T06:20:19.633Z,15.17
2018-12-01T06:22:47.619Z,9.27
2018-12-01T06:25:16.765Z,11.37
2018-12-01T06:27:44.892Z,10.07
2018-12-01T06:30:15.657Z,16.50
2018-12-01T06:32:43.843Z,7.43
2018-12-01T06:35:11.856Z,8.53
2018-12-01T06:37:39.883Z,13.43
2018-12-01T06:40:13.583Z,8.00
2018-12-01T06:42:41.592Z,15.70
2018-12-01T06:45:10.743Z,16.13
2018-12-01T06:47:38.779Z,15.43
2018-12-01T06:50:14.392Z,16.90
2018-12-01T06:52:42.432Z,14.83
2018-12-01T06:55:11.391Z,12.83
2018-12-01T06:57:40.523Z,16.00
2018-12-01T07:00:15.179Z,17.57
2018-12-01T07:02:43.776Z,15.63
2018-12-01T07:05:12.565Z,16.00
2018-12-01T07:07:40.572Z,14.30
2018-12-01T07:10:10.608Z,18.03
2018-12-01T07:12:38.993Z,27.10
2018-12-01T07:15:10.029Z,21.10
2018-12-01T07:17:38.000Z,24.60
2018-12-01T07:20:07.204Z,20.23
2018-12-01T07:22:35.216Z,47.90
2018-12-01T07:25:03.208Z,20.53
2018-12-01T07:27:31.213Z,24.07
2018-12-01T07:29:59.206Z,18.07
2018-12-01T07:32:27.232Z,24.17
2018-12-01T07:34:55.265Z,19.83
2018-12-01T07:37:23.918Z,22.10
2018-12-01T07:39:52.005Z,23.23
2018-12-01T07:42:20.051Z,15.83
2018-12-01T07:44:48.047Z,27.20
2018-12-01T07:47:16.032Z,40.33
2018-12-01T07:49:44.065Z,38.23
2018-12-01T07:52:12.069Z,25.53
2018-12-01T07:54:40.040Z,25.47
2018-12-01T07:57:08.059Z,17.30
2018-12-01T07:59:36.137Z,15.87
2018-12-01T08:02:04.561Z,14.97
2018-12-01T08:04:32.543Z,15.20
2018-12-01T08:07:00.552Z,13.67
2018-12-01T08:09:28.581Z,11.47
2018-12-01T08:11:57.520Z,13.50
2018-12-01T08:14:25.688Z,13.30
2018-12-01T08:16:53.700Z,13.60
2018-12-01T08:19:21.701Z,15.47
2018-12-01T08:21:49.701Z,16.73
2018-12-01T08:24:17.689Z,16.30
2018-12-01T08:26:45.682Z,13.07
2018-12-01T08:29:13.670Z,13.30
2018-12-01T08:31:41.676Z,10.20
2018-12-01T08:34:09.673Z,11.03
2018-12-01T08:36:37.644Z,17.63
2018-12-01T08:39:07.875Z,14.57
2018-12-01T08:41:36.208Z,16.97
2018-12-01T08:44:04.284Z,12.53
2018-12-01T08:46:32.304Z,17.63
2018-12-01T08:49:00.303Z,17.63
2018-12-01T08:51:28.317Z,21.20
2018-12-01T08:53:56.390Z,15.63
2018-12-01T08:56:24.416Z,18.10
2018-12-01T08:58:52.416Z,16.67
2018-12-01T09:01:20.416Z,17.37
2018-12-01T09:03:48.424Z,16.23
2018-12-01T09:06:16.416Z,13.67
2018-12-01T09:08:44.399Z,15.10
2018-12-01T09:11:12.406Z,11.40
2018-12-01T09:13:40.387Z,15.37
2018-12-01T09:16:08.395Z,14.23
2018-12-01T09:18:36.380Z,17.77
2018-12-01T09:21:04.493Z,11.70
2018-12-01T09:23:32.476Z,12.33
2018-12-01T09:26:00.447Z,14.57
2018-12-01T09:28:28.427Z,12.40
2018-12-01T09:30:56.448Z,11.63
2018-12-01T09:33:24.928Z,11.20
2018-12-01T09:35:52.964Z,15.80
2018-12-01T09:38:20.973Z,10.50
2018-12-01T09:40:48.964Z,10.87
2018-12-01T09:43:16.960Z,12.50
2018-12-01T09:45:44.928Z,12.30
2018-12-01T09:48:12.907Z,13.47
2018-12-01T09:50:40.896Z,14.40
2018-12-01T09:53:08.900Z,8.53
2018-12-01T09:55:36.875Z,14.13
2018-12-01T09:58:06.007Z,14.93
2018-12-01T10:00:33.992Z,19.93
2018-12-01T10:03:04.528Z,17.43
2018-12-01T10:05:33.105Z,16.97
2018-12-01T10:08:01.091Z,13.97
2018-12-01T10:10:29.156Z,14.10
2018-12-01T10:12:57.655Z,14.23
2018-12-01T10:15:31.489Z,15.80
2018-12-01T10:17:59.497Z,17.40
2018-12-01T10:20:29.333Z,17.57
2018-12-01T10:22:58.109Z,15.47
2018-12-01T10:25:26.173Z,13.20
2018-12-01T10:27:54.467Z,18.30
2018-12-01T10:30:22.536Z,16.97
2018-12-01T10:32:51.421Z,12.90
2018-12-01T10:35:24.253Z,14.13
2018-12-01T10:37:55.251Z,12.93
2018-12-01T10:40:23.330Z,11.63
2018-12-01T10:42:51.400Z,17.17
2018-12-01T10:45:20.277Z,6.87
2018-12-01T10:47:48.285Z,7.43
2018-12-01T10:50:21.156Z,10.97
2018-12-01T10:52:50.423Z,8.23
2018-12-01T10:55:24.616Z,11.57
2018-12-01T10:57:54.600Z,11.00
2018-12-01T11:00:28.218Z,7.07
2018-12-01T11:03:00.718Z,11.83
2018-12-01T11:05:28.841Z,8.63
2018-12-01T11:07:56.858Z,9.30
2018-12-01T11:10:24.982Z,9.70
2018-12-01T11:12:53.009Z,13.70
2018-12-01T11:15:21.009Z,8.13
2018-12-01T11:17:49.054Z,10.63
2018-12-01T11:20:17.065Z,10.57
2018-12-01T11:22:45.048Z,10.77
2018-12-01T11:25:13.038Z,12.00
2018-12-01T11:27:41.021Z,11.40
2018-12-01T11:30:16.135Z,8.90
2018-12-01T11:32:44.176Z,10.80
2018-12-01T11:35:12.184Z,12.07
2018-12-01T11:37:40.201Z,11.67
2018-12-01T11:40:13.465Z,10.37
2018-12-01T11:42:41.501Z,7.83
2018-12-01T11:45:10.863Z,12.37
2018-12-01T11:47:38.841Z,16.30
2018-12-01T11:50:13.379Z,7.27
2018-12-01T11:52:41.398Z,11.17
2018-12-01T11:55:11.736Z,11.43
2018-12-01T11:57:39.708Z,8.10
2018-12-01T12:00:15.958Z,6.70
2018-12-01T12:02:44.133Z,8.60
2018-12-01T12:05:13.007Z,9.03
2018-12-01T12:07:52.117Z,12.30
2018-12-01T12:10:20.104Z,10.20
2018-12-01T12:12:48.076Z,11.43
2018-12-01T12:15:16.158Z,14.13
2018-12-01T12:17:45.762Z,11.27
2018-12-01T12:20:13.747Z,9.07
2018-12-01T12:22:41.731Z,8.73
2018-12-01T12:25:10.388Z,13.47
2018-12-01T12:27:38.423Z,11.77
2018-12-01T12:30:10.548Z,12.20
2018-12-01T12:32:38.639Z,11.77
2018-12-01T12:35:07.162Z,7.43
2018-12-01T12:37:35.193Z,10.77
2018-12-01T12:40:03.620Z,10.80
2018-12-01T12:42:31.664Z,9.07
2018-12-01T12:44:59.712Z,11.67
2018-12-01T12:47:27.704Z,13.33
2018-12-01T12:49:56.008Z,11.37
2018-12-01T12:52:24.308Z,8.40
2018-12-01T12:54:52.320Z,7.80
2018-12-01T12:57:20.334Z,11.80
2018-12-01T12:59:48.361Z,14.40
2018-12-01T13:02:16.401Z,12.23
2018-12-01T13:04:44.412Z,8.27
2018-12-01T13:07:12.413Z,11.07
2018-12-01T13:09:40.431Z,12.70
2018-12-01T13:12:08.527Z,6.27
2018-12-01T13:14:36.525Z,9.93
2018-12-01T13:17:04.602Z,8.10
2018-12-01T13:19:32.592Z,20.87
2018-12-01T13:22:00.580Z,12.73
2018-12-01T13:24:28.592Z,9.30
2018-12-01T13:26:56.591Z,11.60
2018-12-01T13:29:24.935Z,11.00
2018-12-01T13:31:54.580Z,8.77
2018-12-01T13:34:21.008Z,12.33
2018-12-01T13:36:48.993Z,8.27
2018-12-01T13:39:16.997Z,12.17
2018-12-01T13:41:44.996Z,6.67
2018-12-01T13:44:12.979Z,9.57
2018-12-01T13:46:40.994Z,4.70
2018-12-01T13:49:08.996Z,7.47
2018-12-01T13:51:36.984Z,9.33
2018-12-01T13:54:05.124Z,16.00
2018-12-01T13:56:33.112Z,6.83
2018-12-01T13:59:02.104Z,9.17
2018-12-01T14:01:30.096Z,8.70
2018-12-01T14:03:58.077Z,6.07
2018-12-01T14:06:26.080Z,7.77
2018-12-01T14:08:55.492Z,11.30
2018-12-01T14:11:24.257Z,6.57
2018-12-01T14:13:51.824Z,6.73
2018-12-01T14:16:19.814Z,10.43
2018-12-01T14:18:47.805Z,5.97
2018-12-01T14:21:15.796Z,9.90
2018-12-01T14:23:43.808Z,8.17
2018-12-01T14:26:11.805Z,7.83
2018-12-01T14:28:39.797Z,10.27
2018-12-01T14:31:07.833Z,8.73
2018-12-01T14:33:35.824Z,9.90
2018-12-01T14:36:03.865Z,9.10
2018-12-01T14:38:31.872Z,7.33
2018-12-01T14:40:59.905Z,8.70
2018-12-01T14:43:27.944Z,10.23
2018-12-01T14:45:56.740Z,9.33
2018-12-01T14:48:25.041Z,9.67
2018-12-01T14:50:53.023Z,7.40
2018-12-01T14:53:21.027Z,7.27
2018-12-01T14:55:49.047Z,10.33
2018-12-01T14:58:17.046Z,11.63
2018-12-01T15:00:45.027Z,8.10
2018-12-01T15:03:13.033Z,9.07
2018-12-01T15:05:41.461Z,10.50
2018-12-01T15:08:09.496Z,6.63
2018-12-01T15:10:37.560Z,9.37
2018-12-01T15:13:05.888Z,9.63
2018-12-01T15:15:33.881Z,9.37
2018-12-01T15:18:01.889Z,10.27
2018-12-01T15:20:29.888Z,7.73
2018-12-01T15:22:58.688Z,15.97
2018-12-01T15:25:28.549Z,9.47
2018-12-01T15:27:56.676Z,7.87
2018-12-01T15:30:26.676Z,8.60
2018-12-01T15:33:11.138Z,7.90
2018-12-01T15:35:39.934Z,8.67
2018-12-01T15:38:08.807Z,15.13
2018-12-01T15:40:37.547Z,10.53
2018-12-01T15:43:05.790Z,8.10
2018-12-01T15:45:33.823Z,10.17
2018-12-01T15:48:01.826Z,12.63
2018-12-01T15:50:29.837Z,9.87
2018-12-01T15:52:58.364Z,11.07
2018-12-01T15:55:26.373Z,12.80
2018-12-01T15:57:55.640Z,13.73
2018-12-01T16:00:24.958Z,16.10
2018-12-01T16:02:53.014Z,18.13
2018-12-01T16:05:21.912Z,11.80
2018-12-01T16:07:52.224Z,15.33
2018-12-01T16:10:21.228Z,29.27
2018-12-01T16:12:51.453Z,23.37
2018-12-01T16:15:37.914Z,12.83
2018-12-01T16:18:07.031Z,12.33
2018-12-01T16:20:35.065Z,11.80
2018-12-01T16:23:03.076Z,16.67
2018-12-01T16:25:31.056Z,11.57
2018-12-01T16:27:59.066Z,16.10
2018-12-01T16:30:29.366Z,13.27
2018-12-01T16:32:59.772Z,14.27
2018-12-01T16:35:27.804Z,13.93
2018-12-01T16:37:55.956Z,10.27
2018-12-01T16:40:27.347Z,18.67
2018-12-01T16:42:56.956Z,27.97
2018-12-01T16:45:25.905Z,28.13
2018-12-01T16:47:53.900Z,23.73
2018-12-01T16:50:21.896Z,22.33
2018-12-01T16:52:49.900Z,23.47
2018-12-01T16:55:17.979Z,24.60
2018-12-01T16:57:46.008Z,21.57
2018-12-01T17:00:16.844Z,33.33
2018-12-01T17:02:47.080Z,22.27
2018-12-01T17:05:16.380Z,28.57
2018-12-01T17:07:44.364Z,20.40
2018-12-01T17:10:17.349Z,24.70
2018-12-01T17:12:46.240Z,39.97
2018-12-01T17:15:17.421Z,32.50
2018-12-01T17:17:45.526Z,30.23
2018-12-01T17:20:14.237Z,29.03
2018-12-01T17:22:44.718Z,29.00
2018-12-01T17:25:14.524Z,26.83
2018-12-01T17:27:42.592Z,29.75
2018-12-01T17:30:26.799Z,22.40
2018-12-01T17:32:55.835Z,26.83
2018-12-01T17:35:30.734Z,25.77
2018-12-01T17:38:00.015Z,28.00
2018-12-01T17:40:41.237Z,38.70
2018-12-01T17:43:10.793Z,42.07
2018-12-01T17:45:38.800Z,48.92
2018-12-01T17:48:07.368Z,48.13
2018-12-01T17:50:35.410Z,52.37
2018-12-01T17:53:03.432Z,44.87
2018-12-01T17:55:31.632Z,42.70
2018-12-01T17:57:59.644Z,45.97
2018-12-01T18:00:29.178Z,40.77
2018-12-01T18:02:59.676Z,43.17
2018-12-01T18:05:33.744Z,71.73
2018-12-01T18:08:02.396Z,41.13
2018-12-01T18:10:30.470Z,35.97
2018-12-01T18:13:00.564Z,37.03
2018-12-01T18:15:28.814Z,32.53
2018-12-01T18:17:57.069Z,26.97
2018-12-01T18:20:25.324Z,27.40
2018-12-01T18:22:57.992Z,26.23
2018-12-01T18:25:27.400Z,35.43
2018-12-01T18:27:57.134Z,34.90
2018-12-01T18:30:29.133Z,38.10
2018-12-01T18:32:59.441Z,46.27
2018-12-01T18:35:27.818Z,34.40
2018-12-01T18:37:56.012Z,37.95
2018-12-01T18:40:24.105Z,31.13
2018-12-01T18:42:52.257Z,44.13
2018-12-01T18:45:21.711Z,52.50
2018-12-01T18:47:52.132Z,53.27
2018-12-01T18:50:20.640Z,41.60
2018-12-01T18:52:54.832Z,37.03
2018-12-01T18:55:23.679Z,41.37
2018-12-01T18:57:53.994Z,43.37
2018-12-01T19:00:27.820Z,35.83
2018-12-01T19:02:59.544Z,36.90
2018-12-01T19:05:29.886Z,32.63
2018-12-01T19:07:58.332Z,35.47
2018-12-01T19:10:27.562Z,25.77
2018-12-01T19:12:58.995Z,23.90
2018-12-01T19:15:28.869Z,32.63
2018-12-01T19:17:58.056Z,37.80
2018-12-01T19:20:29.014Z,31.63
2018-12-01T19:22:58.335Z,27.60
2018-12-01T19:25:26.829Z,32.47
2018-12-01T19:27:59.345Z,26.60
2018-12-01T19:30:31.861Z,31.90
2018-12-01T19:33:03.189Z,28.87
2018-12-01T19:35:31.212Z,27.50
2018-12-01T19:37:59.476Z,25.77
2018-12-01T19:40:29.833Z,28.87
2018-12-01T19:42:59.775Z,18.33
2018-12-01T19:45:28.790Z,27.80
2018-12-01T19:47:57.800Z,25.17
2018-12-01T19:50:31.427Z,26.23
2018-12-01T19:52:59.676Z,27.00
2018-12-01T19:55:29.052Z,22.97
2018-12-01T19:57:57.361Z,25.67
2018-12-01T20:00:26.718Z,32.07
2018-12-01T20:02:56.209Z,26.70
2018-12-01T20:05:24.342Z,33.23
2018-12-01T20:07:52.608Z,27.53
2018-12-01T20:10:23.115Z,26.67
2018-12-01T20:12:53.760Z,26.37
2018-12-01T20:15:56.184Z,29.50
2018-12-01T20:18:26.131Z,26.03
2018-12-01T20:20:54.136Z,17.97
2018-12-01T20:23:22.137Z,26.70
2018-12-01T20:25:50.907Z,18.40
2018-12-01T20:28:19.004Z,24.27
2018-12-01T20:30:47.772Z,25.70
2018-12-01T20:33:16.279Z,29.10
2018-12-01T20:36:01.399Z,29.80
2018-12-01T20:38:37.839Z,28.93
2018-12-01T20:41:05.844Z,34.60
2018-12-01T20:43:33.851Z,25.53
2018-12-01T20:46:01.928Z,22.00
2018-12-01T20:48:29.942Z,20.97
2018-12-01T20:50:58.807Z,24.47
2018-12-01T20:53:27.376Z,20.00
2018-12-01T20:55:57.368Z,23.23
2018-12-01T20:58:28.405Z,22.60
2018-12-01T21:00:56.400Z,23.53
2018-12-01T21:03:24.577Z,34.27
2018-12-01T21:05:52.573Z,31.07
2018-12-01T21:08:25.252Z,34.13
2018-12-01T21:13:34.908Z,29.50
2018-12-01T21:16:02.932Z,33.73
2018-12-01T21:18:30.926Z,35.90
2018-12-01T21:20:59.089Z,32.73
2018-12-01T21:23:27.093Z,28.50
2018-12-01T21:25:55.104Z,29.77
2018-12-01T21:28:23.115Z,23.93
2018-12-01T21:30:51.565Z,25.83
2018-12-01T21:33:21.367Z,26.73
2018-12-01T21:35:49.372Z,26.30
2018-12-01T21:38:17.481Z,27.10
2018-12-01T21:40:45.524Z,25.03
2018-12-01T21:43:13.569Z,26.23
2018-12-01T21:45:41.607Z,28.67
2018-12-01T21:48:10.838Z,22.97
2018-12-01T21:50:39.724Z,22.33
2018-12-01T21:53:10.673Z,19.77
2018-12-01T21:55:38.686Z,14.30
2018-12-01T21:58:07.201Z,15.27
2018-12-01T22:00:35.480Z,18.70
2018-12-01T22:03:06.082Z,19.53
2018-12-01T22:05:41.777Z,24.10
2018-12-01T22:08:11.569Z,17.53
2018-12-01T22:10:39.550Z,17.57
2018-12-01T22:13:07.596Z,16.47
2018-12-01T22:15:35.584Z,15.13
2018-12-01T22:18:03.740Z,19.67
2018-12-01T22:20:31.799Z,19.17
2018-12-01T22:22:59.828Z,18.33
2018-12-01T22:25:27.841Z,19.80
2018-12-01T22:27:55.868Z,19.53
2018-12-01T22:30:23.960Z,26.07
2018-12-01T22:32:53.627Z,20.47
2018-12-01T22:35:22.803Z,20.43
2018-12-01T22:37:51.484Z,15.13
2018-12-01T22:40:22.735Z,22.20
2018-12-01T22:42:53.072Z,17.57
2018-12-01T22:45:21.094Z,12.77
2018-12-01T22:47:49.088Z,14.43
2018-12-01T22:50:19.184Z,14.13
2018-12-01T22:52:47.313Z,14.80
2018-12-01T22:55:16.585Z,18.93
2018-12-01T22:57:46.197Z,16.97
2018-12-01T23:00:18.879Z,12.87
2018-12-01T23:02:46.872Z,15.33
2018-12-01T23:05:14.932Z,12.73
2018-12-01T23:07:42.930Z,12.80
2018-12-01T23:10:12.128Z,16.10
2018-12-01T23:12:40.440Z,21.77
2018-12-01T23:15:10.060Z,15.70
2018-12-01T23:17:38.048Z,16.77
2018-12-01T23:20:21.760Z,17.90
2018-12-01T23:22:50.456Z,12.23
2018-12-01T23:25:18.444Z,11.73
2018-12-01T23:27:46.469Z,13.10
2018-12-01T23:30:21.746Z,17.07
2018-12-01T23:32:54.102Z,20.77
2018-12-01T23:35:22.132Z,17.70
2018-12-01T23:37:50.169Z,29.40
2018-12-01T23:40:18.253Z,23.87
2018-12-01T23:42:46.250Z,22.60
2018-12-01T23:45:15.308Z,29.03
2018-12-01T23:47:43.697Z,22.63
2018-12-01T23:50:17.789Z,25.17
2018-12-01T23:52:46.901Z,24.93
2018-12-01T23:55:15.055Z,25.13
2018-12-01T23:57:43.195Z,26.63
